createdAt,value
2022-10-11T00:02:14.657Z,8.87
2022-10-11T00:04:43.767Z,12.00
2022-10-11T00:07:11.873Z,10.33
2022-10-11T00:09:39.854Z,9.40
2022-10-11T00:12:08.025Z,9.13
2022-10-11T00:14:36.314Z,10.60
2022-10-11T00:17:04.231Z,10.73
2022-10-11T00:19:32.792Z,11.67
2022-10-11T00:22:01.943Z,7.83
2022-10-11T00:24:29.752Z,6.50
2022-10-11T00:26:57.574Z,8.53
2022-10-11T00:29:25.365Z,7.37
2022-10-11T00:31:53.156Z,9.97
2022-10-11T00:34:20.955Z,11.37
2022-10-11T00:36:49.038Z,6.97
2022-10-11T00:39:18.273Z,11.60
2022-10-11T00:41:47.758Z,8.63
2022-10-11T00:44:17.735Z,9.93
2022-10-11T00:46:54.984Z,12.03
2022-10-11T00:49:31.181Z,7.57
2022-10-11T00:52:03.500Z,7.93
2022-10-11T00:54:37.131Z,10.57
2022-10-11T00:57:09.038Z,9.30
2022-10-11T00:59:40.729Z,8.43
2022-10-11T01:02:09.690Z,6.97
2022-10-11T01:04:37.552Z,9.60
2022-10-11T01:07:05.441Z,13.27
2022-10-11T01:09:35.004Z,8.93
2022-10-11T01:12:05.744Z,7.20
2022-10-11T01:15:01.797Z,7.50
2022-10-11T01:17:36.775Z,8.47
2022-10-11T01:20:31.922Z,8.27
2022-10-11T01:23:25.664Z,6.63
2022-10-11T01:26:10.822Z,8.50
2022-10-11T01:28:50.274Z,8.40
2022-10-11T01:31:26.378Z,6.53
2022-10-11T01:33:56.644Z,8.20
2022-10-11T01:36:31.589Z,8.17
2022-10-11T01:39:04.362Z,7.67
2022-10-11T01:41:38.168Z,7.07
2022-10-11T01:44:07.558Z,8.03
2022-10-11T01:46:37.930Z,9.33
2022-10-11T01:49:06.777Z,8.20
2022-10-11T01:52:30.052Z,9.30
2022-10-11T01:55:12.265Z,9.87
2022-10-11T01:57:54.364Z,7.23
2022-10-11T02:00:24.052Z,8.17
2022-10-11T02:03:10.120Z,7.87
2022-10-11T02:05:49.074Z,8.97
2022-10-11T02:08:22.574Z,6.50
2022-10-11T02:10:56.906Z,7.20
2022-10-11T02:13:29.507Z,6.33
2022-10-11T02:16:02.225Z,8.03
2022-10-11T02:18:36.157Z,5.63
2022-10-11T02:21:08.613Z,4.57
2022-10-11T02:23:41.120Z,2.77
2022-10-11T02:26:11.512Z,5.67
2022-10-11T02:28:42.665Z,3.10
2022-10-11T02:31:12.067Z,5.03
2022-10-11T02:33:45.923Z,3.27
2022-10-11T02:36:21.959Z,3.67
2022-10-11T02:38:54.140Z,5.83
2022-10-11T02:41:28.266Z,2.73
2022-10-11T02:44:00.017Z,9.43
2022-10-11T02:46:30.446Z,6.60
2022-10-11T02:49:00.676Z,5.40
2022-10-11T02:51:31.551Z,6.03
2022-10-11T02:53:59.402Z,5.97
2022-10-11T02:56:27.321Z,6.07
2022-10-11T02:58:55.090Z,4.27
2022-10-11T03:01:22.944Z,7.10
2022-10-11T03:03:50.794Z,9.00
2022-10-11T03:06:19.986Z,5.87
2022-10-11T03:08:47.792Z,5.97
2022-10-11T03:11:15.627Z,4.87
2022-10-11T03:13:43.401Z,5.00
2022-10-11T03:16:11.499Z,6.40
2022-10-11T03:18:39.365Z,5.50
2022-10-11T03:21:07.206Z,7.00
2022-10-11T03:23:36.498Z,5.67
2022-10-11T03:26:04.760Z,6.53
2022-10-11T03:28:33.024Z,12.73
2022-10-11T03:31:00.902Z,9.13
2022-10-11T03:33:28.670Z,9.73
2022-10-11T03:35:56.490Z,9.00
2022-10-11T03:38:24.283Z,6.83
2022-10-11T03:40:53.421Z,6.47
2022-10-11T03:43:21.185Z,9.17
2022-10-11T03:45:49.027Z,8.30
2022-10-11T03:48:16.833Z,10.00
2022-10-11T03:50:44.618Z,12.20
2022-10-11T03:53:12.589Z,6.00
2022-10-11T03:55:41.312Z,6.93
2022-10-11T03:58:10.496Z,7.83
2022-10-11T04:00:38.501Z,7.73
2022-10-11T04:03:06.414Z,9.73
2022-10-11T04:05:34.196Z,7.40
2022-10-11T04:08:02.007Z,9.60
2022-10-11T04:10:31.029Z,9.40
2022-10-11T04:12:58.970Z,9.30
2022-10-11T04:15:28.101Z,11.70
2022-10-11T04:17:55.937Z,8.87
2022-10-11T04:20:23.803Z,9.43
2022-10-11T04:22:51.625Z,9.93
2022-10-11T04:25:19.537Z,12.37
2022-10-11T04:27:47.397Z,10.53
2022-10-11T04:30:16.178Z,10.50
2022-10-11T04:32:45.454Z,10.00
2022-10-11T04:35:13.301Z,9.67
2022-10-11T04:37:41.185Z,9.77
2022-10-11T04:40:10.178Z,9.03
2022-10-11T04:42:38.006Z,9.73
2022-10-11T04:45:06.867Z,8.73
2022-10-11T04:47:34.686Z,10.80
2022-10-11T04:50:03.985Z,8.90
2022-10-11T04:52:31.784Z,8.57
2022-10-11T04:55:01.190Z,7.80
2022-10-11T04:57:28.996Z,9.97
2022-10-11T04:59:56.754Z,7.37
2022-10-11T05:02:24.581Z,10.13
2022-10-11T05:04:52.435Z,8.30
2022-10-11T05:07:21.543Z,10.80
2022-10-11T05:09:49.305Z,9.70
2022-10-11T05:12:17.097Z,10.37
2022-10-11T05:14:44.889Z,6.63
2022-10-11T05:17:12.713Z,10.47
2022-10-11T05:19:40.496Z,9.53
2022-10-11T05:22:08.271Z,11.80
2022-10-11T05:24:37.686Z,10.40
2022-10-11T05:27:05.462Z,12.27
2022-10-11T05:29:33.292Z,10.73
2022-10-11T05:32:01.130Z,7.63
2022-10-11T05:34:29.037Z,11.23
2022-10-11T05:36:57.418Z,9.60
2022-10-11T05:39:25.250Z,10.43
2022-10-11T05:41:54.532Z,12.03
2022-10-11T05:44:22.329Z,11.70
2022-10-11T05:46:50.116Z,12.30
2022-10-11T05:49:17.890Z,9.67
2022-10-11T05:51:45.746Z,13.57
2022-10-11T05:54:13.520Z,11.87
2022-10-11T05:56:41.346Z,12.57
2022-10-11T05:59:10.520Z,14.87
2022-10-11T06:01:38.465Z,11.00
2022-10-11T06:04:06.702Z,12.07
2022-10-11T06:06:34.823Z,10.70
2022-10-11T06:09:02.690Z,14.57
2022-10-11T06:11:30.541Z,15.03
2022-10-11T06:13:59.149Z,13.03
2022-10-11T06:16:28.487Z,17.07
2022-10-11T06:18:57.290Z,16.23
2022-10-11T06:21:25.745Z,17.13
2022-10-11T06:23:59.893Z,14.73
2022-10-11T06:26:28.932Z,16.70
2022-10-11T06:28:56.796Z,14.17
2022-10-11T06:31:24.687Z,17.60
2022-10-11T06:33:53.808Z,17.13
2022-10-11T06:36:21.601Z,18.03
2022-10-11T06:38:52.466Z,15.80
2022-10-11T06:41:23.337Z,18.20
2022-10-11T06:43:51.370Z,17.07
2022-10-11T06:46:20.247Z,16.87
2022-10-11T06:48:49.260Z,17.50
2022-10-11T06:51:20.657Z,16.43
2022-10-11T06:53:50.640Z,18.83
2022-10-11T06:56:19.446Z,36.60
2022-10-11T06:58:47.312Z,40.13
2022-10-11T07:01:18.963Z,28.00
2022-10-11T07:03:47.239Z,50.73
2022-10-11T07:06:17.375Z,29.83
2022-10-11T07:08:46.779Z,33.40
2022-10-11T07:11:16.014Z,36.47
2022-10-11T07:13:43.820Z,29.77
2022-10-11T07:16:13.256Z,64.57
2022-10-11T07:18:41.073Z,54.00
2022-10-11T07:21:11.910Z,39.70
2022-10-11T07:23:39.680Z,34.00
2022-10-11T07:26:10.892Z,17.03
2022-10-11T07:28:39.307Z,23.63
2022-10-11T07:31:08.255Z,45.00
2022-10-11T07:33:36.132Z,44.43
2022-10-11T07:36:05.096Z,22.60
2022-10-11T07:38:33.077Z,27.83
2022-10-11T07:41:05.273Z,40.30
2022-10-11T07:43:34.501Z,29.40
2022-10-11T07:46:04.647Z,32.73
2022-10-11T07:48:33.680Z,33.97
2022-10-11T07:51:06.775Z,38.73
2022-10-11T07:53:39.665Z,32.57
2022-10-11T07:56:08.738Z,45.10
2022-10-11T07:58:38.168Z,48.00
2022-10-11T08:01:06.722Z,48.77
2022-10-11T08:03:34.556Z,39.33
2022-10-11T08:06:03.184Z,46.80
2022-10-11T08:08:31.501Z,50.57
2022-10-11T08:11:29.707Z,63.10
2022-10-11T08:14:00.368Z,39.83
2022-10-11T08:16:28.395Z,51.67
2022-10-11T08:18:56.967Z,45.97
2022-10-11T08:21:26.685Z,59.10
2022-10-11T08:23:54.497Z,54.53
2022-10-11T08:26:22.969Z,47.63
2022-10-11T08:28:50.834Z,42.07
2022-10-11T08:31:19.991Z,50.33
2022-10-11T08:33:47.874Z,46.30
2022-10-11T08:36:15.757Z,51.73
2022-10-11T08:38:43.540Z,55.37
2022-10-11T08:41:30.673Z,51.83
2022-10-11T08:44:20.962Z,41.50
2022-10-11T08:46:58.181Z,47.00
2022-10-11T08:49:31.216Z,51.20
2022-10-11T08:52:04.475Z,44.87
2022-10-11T08:54:42.971Z,43.23
2022-10-11T08:57:15.116Z,43.47
2022-10-11T08:59:46.719Z,42.30
2022-10-11T09:02:25.121Z,47.77
2022-10-11T09:04:54.744Z,46.40
2022-10-11T09:07:32.600Z,40.00
2022-10-11T09:10:15.413Z,40.37
2022-10-11T09:12:50.208Z,42.37
2022-10-11T09:15:26.143Z,35.07
2022-10-11T09:18:15.762Z,29.33
2022-10-11T09:21:08.205Z,31.60
2022-10-11T09:23:49.253Z,30.17
2022-10-11T09:26:22.925Z,30.90
2022-10-11T09:29:01.433Z,32.00
2022-10-11T09:31:30.587Z,31.80
2022-10-11T09:34:06.733Z,31.33
2022-10-11T09:36:42.205Z,30.13
2022-10-11T09:39:25.761Z,27.07
2022-10-11T09:41:57.813Z,32.70
2022-10-11T09:44:28.497Z,30.67
2022-10-11T09:46:57.786Z,33.00
2022-10-11T09:49:41.264Z,32.57
2022-10-11T09:52:16.451Z,29.37
2022-10-11T09:54:46.742Z,28.10
2022-10-11T09:57:23.632Z,34.20
2022-10-11T10:00:05.587Z,26.77
2022-10-11T10:02:41.667Z,35.00
2022-10-11T10:05:20.990Z,29.93
2022-10-11T10:08:24.396Z,33.10
2022-10-11T10:11:01.106Z,27.30
2022-10-11T10:13:41.942Z,28.40
2022-10-11T10:16:21.332Z,26.53
2022-10-11T10:18:53.245Z,30.67
2022-10-11T10:21:29.219Z,33.17
2022-10-11T10:23:59.970Z,25.37
2022-10-11T10:26:27.923Z,28.00
2022-10-11T10:28:59.429Z,29.87
2022-10-11T10:31:44.463Z,27.10
2022-10-11T10:34:26.768Z,25.43
2022-10-11T10:37:00.054Z,25.10
2022-10-11T10:39:34.976Z,25.57
2022-10-11T10:42:06.143Z,22.77
2022-10-11T10:44:33.984Z,25.63
2022-10-11T10:47:11.430Z,23.80
2022-10-11T10:49:54.419Z,25.83
2022-10-11T10:52:48.667Z,23.80
2022-10-11T10:55:26.497Z,24.73
2022-10-11T10:58:07.158Z,19.87
2022-10-11T11:00:42.407Z,20.37
2022-10-11T11:03:21.733Z,19.67
2022-10-11T11:05:58.506Z,19.97
2022-10-11T11:08:42.385Z,19.90
2022-10-11T11:11:31.570Z,22.30
2022-10-11T11:14:04.228Z,18.17
2022-10-11T11:16:38.476Z,22.87
2022-10-11T11:19:26.723Z,16.83
2022-10-11T11:22:01.524Z,15.73
2022-10-11T11:24:40.920Z,17.27
2022-10-11T11:27:20.187Z,13.03
2022-10-11T11:29:55.674Z,18.93
2022-10-11T11:32:34.299Z,15.43
2022-10-11T11:35:04.722Z,14.27
2022-10-11T11:37:36.739Z,17.70
2022-10-11T11:40:14.769Z,14.83
2022-10-11T11:42:47.767Z,18.47
2022-10-11T11:45:22.203Z,15.23
2022-10-11T11:47:55.932Z,13.87
2022-10-11T11:50:27.342Z,16.57
2022-10-11T11:52:59.005Z,16.00
2022-10-11T11:55:33.776Z,14.80
2022-10-11T11:58:24.667Z,16.80
2022-10-11T12:01:03.749Z,13.17
2022-10-11T12:03:39.293Z,17.43
2022-10-11T12:06:27.050Z,17.83
2022-10-11T12:09:08.785Z,20.50
2022-10-11T12:11:51.267Z,15.73
2022-10-11T12:14:27.543Z,20.67
2022-10-11T12:17:20.478Z,16.07
2022-10-11T12:20:17.252Z,23.77
2022-10-11T12:23:00.100Z,19.23
2022-10-11T12:25:46.496Z,23.00
2022-10-11T12:28:54.870Z,17.67
2022-10-11T12:31:25.659Z,18.70
2022-10-11T12:34:06.456Z,25.23
2022-10-11T12:36:40.592Z,19.67
2022-10-11T12:39:43.944Z,20.83
2022-10-11T12:42:29.391Z,21.50
2022-10-11T12:45:33.621Z,18.37
2022-10-11T12:48:27.427Z,19.27
2022-10-11T12:51:10.221Z,18.07
2022-10-11T12:54:25.950Z,20.80
2022-10-11T12:57:12.936Z,16.67
2022-10-11T12:59:45.042Z,20.47
2022-10-11T13:02:28.730Z,19.60
2022-10-11T13:05:08.796Z,22.43
2022-10-11T13:07:37.050Z,23.00
2022-10-11T13:10:06.500Z,23.13
2022-10-11T13:12:41.713Z,21.10
2022-10-11T13:15:15.884Z,19.60
2022-10-11T13:17:44.300Z,16.90
2022-10-11T13:20:20.123Z,17.10
2022-10-11T13:22:49.700Z,18.67
2022-10-11T13:25:19.700Z,19.03
2022-10-11T13:27:48.200Z,18.00
2022-10-11T13:30:20.543Z,18.53
2022-10-11T13:32:48.925Z,20.10
2022-10-11T13:35:24.765Z,21.10
2022-10-11T13:37:52.841Z,18.40
2022-10-11T13:40:22.269Z,23.77
2022-10-11T13:42:51.994Z,19.97
2022-10-11T13:45:22.364Z,21.97
2022-10-11T13:47:51.473Z,17.60
2022-10-11T13:50:31.602Z,18.00
2022-10-11T13:53:01.498Z,19.43
2022-10-11T13:55:32.794Z,21.87
2022-10-11T13:58:02.704Z,19.30
2022-10-11T14:00:33.434Z,17.47
2022-10-11T14:03:04.795Z,19.47
2022-10-11T14:05:37.574Z,24.37
2022-10-11T14:08:08.444Z,16.37
2022-10-11T14:10:36.526Z,17.60
2022-10-11T14:13:22.580Z,23.07
2022-10-11T14:16:00.395Z,22.83
2022-10-11T14:18:42.769Z,18.37
2022-10-11T14:21:33.016Z,18.53
2022-10-11T14:24:02.681Z,20.07
2022-10-11T14:26:35.337Z,23.97
2022-10-11T14:29:07.532Z,17.77
2022-10-11T14:31:40.568Z,19.83
2022-10-11T14:34:13.348Z,19.33
2022-10-11T14:36:42.459Z,20.40
2022-10-11T14:39:14.839Z,20.20
2022-10-11T14:41:42.674Z,20.40
2022-10-11T14:44:10.620Z,17.63
2022-10-11T14:46:40.759Z,19.40
2022-10-11T14:49:14.427Z,22.37
2022-10-11T14:51:44.512Z,23.40
2022-10-11T14:54:12.477Z,21.13
2022-10-11T14:56:40.446Z,24.17
2022-10-11T14:59:08.367Z,24.37
2022-10-11T15:01:36.420Z,24.63
2022-10-11T15:04:04.261Z,16.50
2022-10-11T15:06:35.547Z,20.53
2022-10-11T15:09:04.857Z,15.83
2022-10-11T15:11:33.103Z,19.47
2022-10-11T15:14:00.898Z,22.13
2022-10-11T15:16:28.711Z,18.90
2022-10-11T15:18:56.596Z,22.33
2022-10-11T15:21:27.093Z,17.37
2022-10-11T15:23:55.911Z,21.23
2022-10-11T15:26:26.808Z,21.73
2022-10-11T15:28:56.127Z,21.47
2022-10-11T15:31:24.456Z,29.00
2022-10-11T15:33:52.430Z,29.03
2022-10-11T15:36:22.397Z,19.10
2022-10-11T15:38:50.540Z,22.57
2022-10-11T15:41:20.459Z,19.53
2022-10-11T15:43:50.143Z,19.27
2022-10-11T15:46:21.997Z,21.40
2022-10-11T15:48:50.494Z,25.63
2022-10-11T15:51:18.774Z,20.30
2022-10-11T15:53:46.780Z,17.43
2022-10-11T15:56:18.582Z,26.37
2022-10-11T15:58:46.893Z,20.97
2022-10-11T16:01:18.699Z,15.27
2022-10-11T16:03:47.416Z,20.47
2022-10-11T16:06:15.227Z,22.43
2022-10-11T16:08:42.999Z,25.20
2022-10-11T16:11:13.583Z,21.43
2022-10-11T16:13:41.636Z,21.50
2022-10-11T16:16:10.746Z,22.93
2022-10-11T16:18:40.286Z,22.20
2022-10-11T16:21:10.323Z,21.97
2022-10-11T16:23:38.660Z,21.90
2022-10-11T16:26:09.762Z,24.83
2022-10-11T16:28:38.077Z,23.20
2022-10-11T16:31:09.312Z,26.03
2022-10-11T16:33:45.299Z,24.90
2022-10-11T16:36:36.283Z,20.10
2022-10-11T16:39:07.991Z,21.67
2022-10-11T16:41:35.816Z,28.30
2022-10-11T16:44:04.946Z,24.40
2022-10-11T16:46:33.576Z,25.87
2022-10-11T16:49:01.375Z,24.53
2022-10-11T16:51:30.547Z,23.87
2022-10-11T16:53:58.510Z,25.50
2022-10-11T16:56:26.365Z,24.90
2022-10-11T16:58:54.841Z,24.77
2022-10-11T17:01:23.020Z,25.87
2022-10-11T17:03:51.601Z,26.87
2022-10-11T17:06:20.165Z,23.17
2022-10-11T17:08:49.419Z,23.13
2022-10-11T17:11:18.034Z,25.63
2022-10-11T17:13:46.141Z,28.20
2022-10-11T17:16:13.998Z,25.40
2022-10-11T17:18:41.756Z,23.77
2022-10-11T17:21:12.837Z,25.97
2022-10-11T17:23:46.483Z,24.07
2022-10-11T17:26:19.071Z,36.57
2022-10-11T17:28:47.319Z,25.30
2022-10-11T17:31:15.243Z,29.13
2022-10-11T17:33:43.280Z,36.03
2022-10-11T17:36:17.636Z,34.13
2022-10-11T17:38:45.511Z,38.87
2022-10-11T17:41:13.564Z,29.77
2022-10-11T17:43:42.811Z,27.67
2022-10-11T17:46:12.907Z,24.27
2022-10-11T17:48:41.129Z,25.40
2022-10-11T17:51:10.283Z,30.63
2022-10-11T17:53:38.602Z,24.10
2022-10-11T17:56:08.082Z,22.77
2022-10-11T17:58:35.952Z,22.63
2022-10-11T18:01:07.335Z,24.00
2022-10-11T18:03:35.645Z,22.77
2022-10-11T18:06:04.688Z,25.13
2022-10-11T18:08:36.420Z,26.40
2022-10-11T18:11:11.508Z,29.20
2022-10-11T18:13:42.393Z,25.73
2022-10-11T18:16:11.952Z,28.83
2022-10-11T18:18:40.404Z,26.70
2022-10-11T18:21:08.286Z,27.20
2022-10-11T18:23:37.271Z,26.93
2022-10-11T18:26:10.732Z,28.87
2022-10-11T18:28:38.600Z,29.30
2022-10-11T18:31:12.566Z,25.47
2022-10-11T18:33:45.386Z,25.23
2022-10-11T18:36:14.925Z,33.10
2022-10-11T18:38:46.289Z,23.90
2022-10-11T18:41:16.755Z,27.23
2022-10-11T18:43:49.016Z,31.00
2022-10-11T18:46:16.910Z,27.17
2022-10-11T18:48:47.800Z,24.47
2022-10-11T18:51:19.212Z,25.57
2022-10-11T18:53:47.721Z,27.03
2022-10-11T18:56:18.003Z,29.67
2022-10-11T18:58:45.930Z,29.83
2022-10-11T19:01:16.878Z,26.37
2022-10-11T19:03:47.303Z,28.70
2022-10-11T19:06:18.564Z,26.10
2022-10-11T19:08:47.144Z,26.60
2022-10-11T19:11:16.890Z,26.90
2022-10-11T19:13:45.013Z,24.63
2022-10-11T19:16:15.113Z,24.17
2022-10-11T19:18:44.440Z,28.20
2022-10-11T19:21:14.447Z,25.07
2022-10-11T19:23:44.293Z,27.07
2022-10-11T19:26:16.006Z,26.47
2022-10-11T19:28:44.254Z,32.60
2022-10-11T19:31:16.713Z,26.27
2022-10-11T19:33:45.430Z,30.97
2022-10-11T19:36:15.228Z,34.00
2022-10-11T19:38:46.130Z,29.53
2022-10-11T19:41:15.566Z,27.57
2022-10-11T19:43:43.422Z,30.30
2022-10-11T19:46:20.158Z,26.07
2022-10-11T19:48:55.559Z,29.40
2022-10-11T19:51:26.620Z,28.17
2022-10-11T19:53:57.254Z,29.07
2022-10-11T19:56:26.217Z,30.63
2022-10-11T19:58:54.483Z,26.30
2022-10-11T20:01:24.285Z,26.73
2022-10-11T20:03:54.409Z,28.03
2022-10-11T20:06:25.046Z,27.37
2022-10-11T20:09:16.505Z,30.70
2022-10-11T20:11:41.400Z,31.80
2022-10-11T20:14:09.676Z,35.70
2022-10-11T20:16:37.488Z,29.00
2022-10-11T20:19:06.173Z,33.97
2022-10-11T20:21:35.651Z,30.50
2022-10-11T20:24:04.545Z,29.07
2022-10-11T20:26:33.148Z,27.10
2022-10-11T20:29:01.063Z,33.90
2022-10-11T20:31:32.017Z,28.30
2022-10-11T20:34:02.203Z,26.67
2022-10-11T20:36:31.059Z,32.77
2022-10-11T20:39:00.890Z,30.33
2022-10-11T20:41:31.629Z,27.97
2022-10-11T20:44:00.607Z,33.63
2022-10-11T20:46:31.378Z,29.30
2022-10-11T20:49:02.111Z,31.87
2022-10-11T20:51:31.140Z,32.23
2022-10-11T20:54:01.939Z,28.70
2022-10-11T20:56:30.757Z,32.30
2022-10-11T20:58:59.382Z,31.03
2022-10-11T21:01:29.272Z,31.50
2022-10-11T21:03:58.809Z,30.03
2022-10-11T21:06:26.924Z,30.30
2022-10-11T21:08:56.089Z,32.23
2022-10-11T21:11:27.505Z,29.73
2022-10-11T21:13:56.561Z,29.90
2022-10-11T21:16:24.614Z,30.83
2022-10-11T21:18:53.519Z,29.30
2022-10-11T21:21:23.357Z,26.80
2022-10-11T21:23:53.878Z,31.27
2022-10-11T21:26:22.063Z,30.60
2022-10-11T21:28:51.604Z,32.00
2022-10-11T21:31:21.372Z,35.37
2022-10-11T21:33:49.571Z,31.97
2022-10-11T21:36:19.297Z,31.90
2022-10-11T21:38:47.961Z,35.80
2022-10-11T21:41:17.666Z,31.43
2022-10-11T21:43:45.763Z,32.17
2022-10-11T21:46:19.526Z,32.87
2022-10-11T21:48:47.912Z,34.27
2022-10-11T21:51:18.050Z,33.50
2022-10-11T21:53:45.953Z,29.47
2022-10-11T21:56:13.891Z,38.40
2022-10-11T21:58:41.683Z,32.90
2022-10-11T22:01:11.246Z,36.13
2022-10-11T22:03:40.392Z,33.63
2022-10-11T22:06:08.233Z,33.30
2022-10-11T22:08:36.423Z,32.30
2022-10-11T22:11:04.273Z,40.23
2022-10-11T22:13:34.040Z,33.70
2022-10-11T22:16:04.495Z,35.47
2022-10-11T22:18:33.792Z,33.73
2022-10-11T22:21:08.371Z,35.20
2022-10-11T22:23:36.662Z,37.80
2022-10-11T22:26:05.408Z,32.97
2022-10-11T22:28:33.334Z,34.70
2022-10-11T22:31:01.557Z,31.30
2022-10-11T22:33:29.515Z,36.27
2022-10-11T22:35:58.534Z,34.83
2022-10-11T22:38:27.850Z,33.10
2022-10-11T22:40:58.826Z,41.73
2022-10-11T22:43:26.940Z,43.07
2022-10-11T22:45:54.708Z,37.77
2022-10-11T22:48:22.498Z,35.90
2022-10-11T22:50:50.323Z,36.37
2022-10-11T22:53:18.309Z,35.33
2022-10-11T22:55:48.226Z,38.53
2022-10-11T22:58:16.119Z,41.77
2022-10-11T23:00:44.389Z,39.10
2022-10-11T23:03:13.793Z,38.07
2022-10-11T23:05:41.603Z,37.17
2022-10-11T23:08:10.260Z,39.87
2022-10-11T23:10:39.385Z,41.23
2022-10-11T23:13:08.527Z,38.27
2022-10-11T23:15:40.141Z,40.43
2022-10-11T23:18:07.989Z,36.23
2022-10-11T23:20:35.743Z,40.30
2022-10-11T23:23:03.507Z,40.07
2022-10-11T23:25:31.275Z,38.07
2022-10-11T23:28:00.968Z,35.23
2022-10-11T23:30:30.826Z,38.53
2022-10-11T23:33:02.353Z,39.73
2022-10-11T23:35:30.569Z,38.83
2022-10-11T23:37:58.314Z,36.90
2022-10-11T23:40:26.100Z,37.03
2022-10-11T23:42:53.845Z,34.80
2022-10-11T23:45:21.603Z,40.23
2022-10-11T23:47:50.714Z,39.27
2022-10-11T23:50:18.751Z,38.80
2022-10-11T23:52:46.534Z,39.47
2022-10-11T23:55:14.345Z,41.03
2022-10-11T23:57:42.095Z,41.03
